createdAt,value
2022-08-26T00:01:32.776Z,25.39
2022-08-26T00:04:01.447Z,25.48
2022-08-26T00:06:30.184Z,25.26
2022-08-26T00:08:56.697Z,24.95
2022-08-26T00:11:26.757Z,24.86
2022-08-26T00:13:54.706Z,24.51
2022-08-26T00:16:22.550Z,24.59
2022-08-26T00:18:49.770Z,24.96
2022-08-26T00:21:16.467Z,24.89
2022-08-26T00:23:43.192Z,25.02
2022-08-26T00:26:11.585Z,25.21
2022-08-26T00:28:39.356Z,24.97
2022-08-26T00:31:07.508Z,25.06
2022-08-26T00:33:38.624Z,25.00
2022-08-26T00:36:05.953Z,24.98
2022-08-26T00:38:33.280Z,24.71
2022-08-26T00:41:00.359Z,24.64
2022-08-26T00:43:27.361Z,24.90
2022-08-26T00:46:11.055Z,24.79
2022-08-26T00:48:39.780Z,24.60
2022-08-26T00:51:16.058Z,24.62
2022-08-26T00:53:51.889Z,24.59
2022-08-26T00:56:29.476Z,24.51
2022-08-26T00:58:58.734Z,24.45
2022-08-26T01:01:26.277Z,24.19
2022-08-26T01:03:55.592Z,24.15
2022-08-26T01:06:24.816Z,24.16
2022-08-26T01:08:52.798Z,24.30
2022-08-26T01:11:20.016Z,24.43
2022-08-26T01:13:47.507Z,23.79
2022-08-26T01:16:16.263Z,23.86
2022-08-26T01:18:44.823Z,24.15
2022-08-26T01:21:32.813Z,24.21
2022-08-26T01:23:59.753Z,24.00
2022-08-26T01:26:32.283Z,23.89
2022-08-26T01:29:01.280Z,23.77
2022-08-26T01:31:32.379Z,23.56
2022-08-26T01:34:07.370Z,23.36
2022-08-26T01:36:37.820Z,23.71
2022-08-26T01:39:05.924Z,23.70
2022-08-26T01:41:34.995Z,23.87
2022-08-26T01:44:04.789Z,23.74
2022-08-26T01:46:32.462Z,23.67
2022-08-26T01:49:06.402Z,23.44
2022-08-26T01:51:37.232Z,23.54
2022-08-26T01:54:06.159Z,23.47
2022-08-26T01:56:36.513Z,23.49
2022-08-26T01:59:08.545Z,23.53
2022-08-26T02:01:37.585Z,23.39
2022-08-26T02:04:20.805Z,23.42
2022-08-26T02:06:48.642Z,23.34
2022-08-26T02:09:16.451Z,23.23
2022-08-26T02:11:43.353Z,23.42
2022-08-26T02:14:14.618Z,23.09
2022-08-26T02:16:46.235Z,23.19
2022-08-26T02:19:17.687Z,22.86
2022-08-26T02:21:45.998Z,22.90
2022-08-26T02:24:27.972Z,23.03
2022-08-26T02:26:57.538Z,23.17
2022-08-26T02:29:35.504Z,23.09
2022-08-26T02:32:02.188Z,22.83
2022-08-26T02:34:32.430Z,22.82
2022-08-26T02:37:01.973Z,22.95
2022-08-26T02:39:30.016Z,23.16
2022-08-26T02:41:57.586Z,22.91
2022-08-26T02:44:24.128Z,22.89
2022-08-26T02:46:52.721Z,22.82
2022-08-26T02:49:22.029Z,22.85
2022-08-26T02:51:49.426Z,22.91
2022-08-26T02:54:17.466Z,22.97
2022-08-26T02:56:45.623Z,22.74
2022-08-26T02:59:15.338Z,22.74
2022-08-26T03:01:42.625Z,22.69
2022-08-26T03:04:12.259Z,22.82
2022-08-26T03:06:39.342Z,22.57
2022-08-26T03:09:08.498Z,22.65
2022-08-26T03:11:36.467Z,22.60
2022-08-26T03:14:04.196Z,22.39
2022-08-26T03:16:36.474Z,22.54
2022-08-26T03:19:05.765Z,22.70
2022-08-26T03:21:32.632Z,22.62
2022-08-26T03:23:59.628Z,22.51
2022-08-26T03:26:27.888Z,22.53
2022-08-26T03:29:15.205Z,22.50
2022-08-26T03:31:43.120Z,22.76
2022-08-26T03:34:09.661Z,22.51
2022-08-26T03:36:38.670Z,22.40
2022-08-26T03:39:05.837Z,22.64
2022-08-26T03:41:34.870Z,22.37
2022-08-26T03:44:02.412Z,22.39
2022-08-26T03:46:32.264Z,22.44
2022-08-26T03:49:00.497Z,22.48
2022-08-26T03:51:28.791Z,22.73
2022-08-26T03:53:55.916Z,22.83
2022-08-26T03:56:23.730Z,22.71
2022-08-26T03:58:50.978Z,22.51
2022-08-26T04:01:17.807Z,22.50
2022-08-26T04:04:00.028Z,22.41
2022-08-26T04:06:45.107Z,22.42
2022-08-26T04:09:19.613Z,22.48
2022-08-26T04:11:50.493Z,22.64
2022-08-26T04:14:22.164Z,22.46
2022-08-26T04:16:49.245Z,22.77
2022-08-26T04:19:17.978Z,22.63
2022-08-26T04:21:45.755Z,22.56
2022-08-26T04:24:15.472Z,22.43
2022-08-26T04:26:43.825Z,22.51
2022-08-26T04:29:13.937Z,22.61
2022-08-26T04:31:41.252Z,22.37
2022-08-26T04:34:08.461Z,22.67
2022-08-26T04:36:38.024Z,22.60
2022-08-26T04:39:05.524Z,22.50
2022-08-26T04:41:33.349Z,22.59
2022-08-26T04:43:59.881Z,22.63
2022-08-26T04:46:26.441Z,22.76
2022-08-26T04:48:53.747Z,22.65
2022-08-26T04:51:27.220Z,22.57
2022-08-26T04:53:57.077Z,22.67
2022-08-26T04:56:28.545Z,22.55
2022-08-26T04:58:55.237Z,22.56
2022-08-26T05:01:22.788Z,22.40
2022-08-26T05:03:51.156Z,22.65
2022-08-26T05:06:19.907Z,22.60
2022-08-26T05:08:47.099Z,22.57
2022-08-26T05:11:13.647Z,22.47
2022-08-26T05:13:40.297Z,22.41
2022-08-26T05:16:11.603Z,22.33
2022-08-26T05:18:39.575Z,22.32
2022-08-26T05:21:07.353Z,22.48
2022-08-26T05:23:36.272Z,22.43
2022-08-26T05:26:07.953Z,22.59
2022-08-26T05:28:34.952Z,22.42
2022-08-26T05:31:02.060Z,22.49
2022-08-26T05:33:29.283Z,22.44
2022-08-26T05:35:55.816Z,22.58
2022-08-26T05:38:23.424Z,22.56
2022-08-26T05:40:52.572Z,22.81
2022-08-26T05:43:20.489Z,22.54
2022-08-26T05:45:49.857Z,22.29
2022-08-26T05:48:24.159Z,22.36
2022-08-26T05:50:52.688Z,22.39
2022-08-26T05:53:21.626Z,22.58
2022-08-26T05:55:51.624Z,22.47
2022-08-26T05:58:20.929Z,22.51
2022-08-26T06:01:01.686Z,22.68
2022-08-26T06:03:31.540Z,22.67
2022-08-26T06:05:58.463Z,22.70
2022-08-26T06:08:25.260Z,22.68
2022-08-26T06:10:54.510Z,22.87
2022-08-26T06:13:23.986Z,22.88
2022-08-26T06:15:51.739Z,22.71
2022-08-26T06:18:21.594Z,22.81
2022-08-26T06:20:57.614Z,22.93
2022-08-26T06:23:45.199Z,22.66
2022-08-26T06:26:12.995Z,22.82
2022-08-26T06:28:39.507Z,22.89
2022-08-26T06:31:06.121Z,22.90
2022-08-26T06:33:33.350Z,23.00
2022-08-26T06:36:01.073Z,22.72
2022-08-26T06:38:28.484Z,22.74
2022-08-26T06:40:55.247Z,22.84
2022-08-26T06:43:24.331Z,22.79
2022-08-26T06:45:52.483Z,22.76
2022-08-26T06:48:20.434Z,22.90
2022-08-26T06:50:48.199Z,22.82
2022-08-26T06:53:17.124Z,22.91
2022-08-26T06:55:46.278Z,22.75
2022-08-26T06:58:14.166Z,22.63
2022-08-26T07:00:41.694Z,22.83
2022-08-26T07:03:14.310Z,23.08
2022-08-26T07:05:40.836Z,22.88
2022-08-26T07:08:07.564Z,22.71
2022-08-26T07:10:35.719Z,22.95
2022-08-26T07:13:02.845Z,22.87
2022-08-26T07:15:31.399Z,22.96
2022-08-26T07:17:58.273Z,22.78
2022-08-26T07:20:25.024Z,22.84
2022-08-26T07:22:51.589Z,22.65
2022-08-26T07:25:19.279Z,22.80
2022-08-26T07:27:47.023Z,22.70
2022-08-26T07:30:20.926Z,22.88
2022-08-26T07:32:47.560Z,22.79
2022-08-26T07:35:14.956Z,22.69
2022-08-26T07:37:42.740Z,22.89
2022-08-26T07:40:10.107Z,22.95
2022-08-26T07:42:36.757Z,22.65
2022-08-26T07:45:04.324Z,22.79
2022-08-26T07:47:30.998Z,22.59
2022-08-26T07:49:57.888Z,22.54
2022-08-26T07:52:27.988Z,22.74
2022-08-26T07:54:58.153Z,22.60
2022-08-26T07:57:26.133Z,22.79
2022-08-26T07:59:53.952Z,22.93
2022-08-26T08:02:22.074Z,23.03
2022-08-26T08:04:48.687Z,23.14
2022-08-26T08:07:15.291Z,22.99
2022-08-26T08:09:41.836Z,22.74
2022-08-26T08:12:09.402Z,22.90
2022-08-26T08:14:42.112Z,22.93
2022-08-26T08:19:42.397Z,23.25
2022-08-26T08:22:17.563Z,22.78
2022-08-26T08:24:45.173Z,22.83
2022-08-26T08:27:11.733Z,22.79
2022-08-26T08:29:38.841Z,23.01
2022-08-26T08:32:05.634Z,22.94
2022-08-26T08:34:38.256Z,23.15
2022-08-26T08:37:10.084Z,23.01
2022-08-26T08:39:37.301Z,23.16
2022-08-26T08:42:29.407Z,22.90
2022-08-26T08:44:59.225Z,22.86
2022-08-26T08:47:31.123Z,22.75
2022-08-26T08:50:22.080Z,22.76
2022-08-26T08:52:56.258Z,22.99
2022-08-26T08:55:31.195Z,22.80
2022-08-26T08:58:07.969Z,22.94
2022-08-26T09:00:59.187Z,22.90
2022-08-26T09:03:47.668Z,23.09
2022-08-26T09:06:18.638Z,23.26
2022-08-26T09:08:50.456Z,23.09
2022-08-26T09:11:20.310Z,23.06
2022-08-26T09:13:51.984Z,23.20
2022-08-26T09:16:32.215Z,23.18
2022-08-26T09:19:34.686Z,23.47
2022-08-26T09:22:04.635Z,23.41
2022-08-26T09:24:41.888Z,23.14
2022-08-26T09:27:50.987Z,23.47
2022-08-26T09:30:30.873Z,23.80
2022-08-26T09:33:01.831Z,23.49
2022-08-26T09:35:31.587Z,23.66
2022-08-26T09:37:58.889Z,23.75
2022-08-26T09:40:34.813Z,23.55
2022-08-26T09:43:07.748Z,23.65
2022-08-26T09:45:35.780Z,23.48
2022-08-26T09:48:03.496Z,23.69
2022-08-26T09:51:03.906Z,23.33
2022-08-26T09:53:37.497Z,23.54
2022-08-26T09:56:11.439Z,23.54
2022-08-26T09:58:45.798Z,23.63
2022-08-26T10:01:23.938Z,23.64
2022-08-26T10:03:51.384Z,23.63
2022-08-26T10:06:17.990Z,23.84
2022-08-26T10:09:10.923Z,23.26
2022-08-26T10:11:37.629Z,23.76
2022-08-26T10:14:28.153Z,23.77
2022-08-26T10:17:19.924Z,23.90
2022-08-26T10:20:04.214Z,23.89
2022-08-26T10:22:46.909Z,23.95
2022-08-26T10:25:18.614Z,23.78
2022-08-26T10:28:10.962Z,24.00
2022-08-26T10:30:46.854Z,23.94
2022-08-26T10:33:18.398Z,23.65
2022-08-26T10:35:51.992Z,23.73
2022-08-26T10:38:27.195Z,23.66
2022-08-26T10:41:23.536Z,23.89
2022-08-26T10:43:58.824Z,23.83
2022-08-26T10:46:28.836Z,23.80
2022-08-26T10:49:13.349Z,24.22
2022-08-26T10:51:53.155Z,23.85
2022-08-26T10:54:31.411Z,23.68
2022-08-26T10:57:14.085Z,24.38
2022-08-26T11:00:32.165Z,24.38
2022-08-26T11:03:37.608Z,24.45
2022-08-26T11:06:19.214Z,24.52
2022-08-26T11:08:47.590Z,24.62
2022-08-26T11:11:39.751Z,24.36
2022-08-26T11:14:28.640Z,24.54
2022-08-26T11:16:58.550Z,24.62
2022-08-26T11:20:01.558Z,24.84
2022-08-26T11:22:31.242Z,24.79
2022-08-26T11:24:57.719Z,24.36
2022-08-26T11:27:24.846Z,24.67
2022-08-26T11:30:01.932Z,24.77
2022-08-26T11:32:34.626Z,24.83
2022-08-26T11:35:19.734Z,24.86
2022-08-26T11:38:25.062Z,24.49
2022-08-26T11:40:59.891Z,24.61
2022-08-26T11:43:30.758Z,24.54
2022-08-26T11:46:10.630Z,24.35
2022-08-26T11:48:40.857Z,24.39
2022-08-26T11:51:23.892Z,24.63
2022-08-26T11:53:51.167Z,24.52
2022-08-26T11:56:33.013Z,24.38
2022-08-26T11:59:03.247Z,24.43
2022-08-26T12:01:35.899Z,24.39
2022-08-26T12:04:08.452Z,24.40
2022-08-26T12:06:48.897Z,24.63
2022-08-26T12:09:27.116Z,24.65
2022-08-26T12:12:09.952Z,24.85
2022-08-26T12:14:39.739Z,24.71
2022-08-26T12:17:17.451Z,24.59
2022-08-26T12:19:45.964Z,24.67
2022-08-26T12:22:21.042Z,24.79
2022-08-26T12:24:52.268Z,24.74
2022-08-26T12:27:29.611Z,24.30
2022-08-26T12:30:06.806Z,24.70
2022-08-26T12:32:39.010Z,24.83
2022-08-26T12:35:25.454Z,24.66
2022-08-26T12:37:54.200Z,24.56
2022-08-26T12:40:40.293Z,24.78
2022-08-26T12:43:08.195Z,24.59
2022-08-26T12:45:41.448Z,24.61
2022-08-26T12:48:14.704Z,24.67
2022-08-26T12:50:47.847Z,24.47
2022-08-26T12:53:22.346Z,24.21
2022-08-26T12:55:53.942Z,24.43
2022-08-26T12:58:22.477Z,24.04
2022-08-26T13:00:50.593Z,23.89
2022-08-26T13:03:30.889Z,23.96
2022-08-26T13:06:09.414Z,24.29
2022-08-26T13:08:45.317Z,24.17
2022-08-26T13:11:20.357Z,24.20
2022-08-26T13:13:51.964Z,24.10
2022-08-26T13:16:22.065Z,24.09
2022-08-26T13:18:51.494Z,24.16
2022-08-26T13:21:21.738Z,24.06
2022-08-26T13:23:49.169Z,23.81
2022-08-26T13:26:15.949Z,24.17
2022-08-26T13:28:43.160Z,24.17
2022-08-26T13:31:15.433Z,23.77
2022-08-26T13:33:45.278Z,23.94
2022-08-26T13:36:14.858Z,24.24
2022-08-26T13:38:41.432Z,24.00
2022-08-26T13:41:14.859Z,23.77
2022-08-26T13:43:42.460Z,23.77
2022-08-26T13:46:09.101Z,23.85
2022-08-26T13:48:35.674Z,23.85
2022-08-26T13:51:03.225Z,23.62
2022-08-26T13:53:34.806Z,23.62
2022-08-26T13:56:02.000Z,23.37
2022-08-26T13:58:28.864Z,23.40
2022-08-26T14:00:57.196Z,23.42
2022-08-26T14:03:24.757Z,23.44
2022-08-26T14:05:53.290Z,23.36
2022-08-26T14:08:21.517Z,23.45
2022-08-26T14:13:19.952Z,23.43
2022-08-26T14:15:47.023Z,23.50
2022-08-26T14:18:16.975Z,23.58
2022-08-26T14:20:49.368Z,23.69
2022-08-26T14:23:17.790Z,23.57
2022-08-26T14:25:44.674Z,23.35
2022-08-26T14:28:12.046Z,23.73
2022-08-26T14:30:43.353Z,23.84
2022-08-26T14:33:14.480Z,23.90
2022-08-26T14:35:41.355Z,23.74
2022-08-26T14:38:16.487Z,24.01
2022-08-26T14:40:47.005Z,24.16
2022-08-26T14:43:15.676Z,24.28
2022-08-26T14:45:45.523Z,24.54
2022-08-26T14:48:12.138Z,24.33
2022-08-26T14:50:38.771Z,24.33
2022-08-26T14:53:23.924Z,24.33
2022-08-26T14:55:50.686Z,24.49
2022-08-26T14:58:17.207Z,24.64
2022-08-26T15:00:43.980Z,24.36
2022-08-26T15:03:10.549Z,24.24
2022-08-26T15:05:37.324Z,24.35
2022-08-26T15:08:10.184Z,24.54
2022-08-26T15:10:36.976Z,24.43
2022-08-26T15:13:03.537Z,24.58
2022-08-26T15:15:30.048Z,24.45
2022-08-26T15:17:57.057Z,24.40
2022-08-26T15:20:23.641Z,24.03
2022-08-26T15:22:50.247Z,24.59
2022-08-26T15:25:17.972Z,24.57
2022-08-26T15:27:45.234Z,24.61
2022-08-26T15:30:13.060Z,24.12
2022-08-26T15:32:39.607Z,23.99
2022-08-26T15:35:09.059Z,24.46
2022-08-26T15:37:36.591Z,23.87
2022-08-26T15:40:04.656Z,24.12
2022-08-26T15:42:31.374Z,24.35
2022-08-26T15:44:57.898Z,24.08
2022-08-26T15:47:24.537Z,24.06
2022-08-26T15:49:51.516Z,24.14
2022-08-26T15:52:18.345Z,24.27
2022-08-26T15:54:44.980Z,23.82
2022-08-26T15:57:13.632Z,23.86
2022-08-26T15:59:41.854Z,23.79
2022-08-26T16:02:09.055Z,23.58
2022-08-26T16:04:35.646Z,23.68
2022-08-26T16:07:02.516Z,23.71
2022-08-26T16:09:30.590Z,24.17
2022-08-26T16:11:57.657Z,23.83
2022-08-26T16:14:25.157Z,23.35
2022-08-26T16:16:51.893Z,23.82
2022-08-26T16:19:19.354Z,23.41
2022-08-26T16:21:45.926Z,23.81
2022-08-26T16:24:13.043Z,23.74
2022-08-26T16:26:42.080Z,23.72
2022-08-26T16:29:12.183Z,23.79
2022-08-26T16:31:39.231Z,23.94
2022-08-26T16:34:07.549Z,23.66
2022-08-26T16:36:38.032Z,23.91
2022-08-26T16:39:06.513Z,23.65
2022-08-26T16:41:33.239Z,24.02
2022-08-26T16:44:00.377Z,23.61
2022-08-26T16:46:27.842Z,23.88
2022-08-26T16:48:56.720Z,23.46
2022-08-26T16:51:26.831Z,23.99
2022-08-26T16:53:55.128Z,24.08
2022-08-26T16:56:33.387Z,23.91
2022-08-26T16:59:02.572Z,23.97
2022-08-26T17:01:29.201Z,23.88
2022-08-26T17:03:55.780Z,23.54
2022-08-26T17:06:22.411Z,23.75
2022-08-26T17:08:49.165Z,23.97
2022-08-26T17:11:16.017Z,24.02
2022-08-26T17:13:42.672Z,23.91
2022-08-26T17:16:10.935Z,24.08
2022-08-26T17:18:38.008Z,23.69
2022-08-26T17:21:08.092Z,23.91
2022-08-26T17:23:35.720Z,23.81
2022-08-26T17:26:02.591Z,23.63
2022-08-26T17:28:29.191Z,24.06
2022-08-26T17:30:57.300Z,23.72
2022-08-26T17:33:25.255Z,23.64
2022-08-26T17:35:52.921Z,23.60
2022-08-26T17:38:20.682Z,23.67
2022-08-26T17:40:47.393Z,23.36
2022-08-26T17:43:13.988Z,23.77
2022-08-26T17:45:41.261Z,23.74
2022-08-26T17:48:08.158Z,23.55
2022-08-26T17:50:35.242Z,23.29
2022-08-26T17:53:01.749Z,23.19
2022-08-26T17:55:28.989Z,23.67
2022-08-26T17:57:55.601Z,23.77
2022-08-26T18:00:26.410Z,23.62
2022-08-26T18:02:55.024Z,23.83
2022-08-26T18:05:22.417Z,23.62
2022-08-26T18:07:49.009Z,23.48
2022-08-26T18:10:17.287Z,23.47
2022-08-26T18:12:44.216Z,23.23
2022-08-26T18:15:12.039Z,23.50
2022-08-26T18:17:39.791Z,23.12
2022-08-26T18:20:09.620Z,22.81
2022-08-26T18:22:36.406Z,22.84
2022-08-26T18:25:05.005Z,23.24
2022-08-26T18:27:31.558Z,23.20
2022-08-26T18:29:58.163Z,23.27
2022-08-26T18:32:24.724Z,23.42
2022-08-26T18:34:51.373Z,23.45
2022-08-26T18:37:17.900Z,23.78
2022-08-26T18:39:44.472Z,23.40
2022-08-26T18:42:11.058Z,23.67
2022-08-26T18:44:37.627Z,23.35
2022-08-26T18:47:04.715Z,23.44
2022-08-26T18:49:31.560Z,23.45
2022-08-26T18:51:58.135Z,23.27
2022-08-26T18:54:24.717Z,23.14
2022-08-26T18:56:51.684Z,23.32
2022-08-26T18:59:18.313Z,23.04
2022-08-26T19:01:45.393Z,22.93
2022-08-26T19:04:15.339Z,22.57
2022-08-26T19:06:42.472Z,22.98
2022-08-26T19:09:11.074Z,22.97
2022-08-26T19:11:42.735Z,22.98
2022-08-26T19:14:13.506Z,23.11
2022-08-26T19:16:42.398Z,22.93
2022-08-26T19:19:09.668Z,22.76
2022-08-26T19:21:37.592Z,22.80
2022-08-26T19:24:09.249Z,22.83
2022-08-26T19:26:36.517Z,22.63
2022-08-26T19:29:03.939Z,22.67
2022-08-26T19:31:31.158Z,22.91
2022-08-26T19:33:58.860Z,22.74
2022-08-26T19:36:26.879Z,22.25
2022-08-26T19:38:54.434Z,22.66
2022-08-26T19:41:37.264Z,22.76
2022-08-26T19:44:33.731Z,22.82
2022-08-26T19:47:01.015Z,22.55
2022-08-26T19:49:27.568Z,22.47
2022-08-26T19:51:54.369Z,22.18
2022-08-26T19:54:22.647Z,22.34
2022-08-26T19:59:17.443Z,22.10
2022-08-26T20:01:44.177Z,22.42
2022-08-26T20:04:10.732Z,22.38
2022-08-26T20:06:37.244Z,22.23
2022-08-26T20:09:03.823Z,22.43
2022-08-26T20:11:31.080Z,22.32
2022-08-26T20:13:57.611Z,22.45
2022-08-26T20:16:24.231Z,22.19
2022-08-26T20:19:12.213Z,21.93
2022-08-26T20:21:41.227Z,22.43
2022-08-26T20:24:16.098Z,22.36
2022-08-26T20:26:44.381Z,22.40
2022-08-26T20:29:15.048Z,22.42
2022-08-26T20:31:43.939Z,22.16
2022-08-26T20:34:11.829Z,22.03
2022-08-26T20:36:39.582Z,22.17
2022-08-26T20:39:06.940Z,22.20
2022-08-26T20:41:34.094Z,22.57
2022-08-26T20:44:01.849Z,22.46
2022-08-26T20:46:28.703Z,22.47
2022-08-26T20:48:56.174Z,22.05
2022-08-26T20:51:24.800Z,22.15
2022-08-26T20:53:51.436Z,22.23
2022-08-26T20:56:26.385Z,22.03
2022-08-26T20:58:55.813Z,21.97
2022-08-26T21:01:25.892Z,22.22
2022-08-26T21:03:54.543Z,21.83
2022-08-26T21:06:21.449Z,22.07
2022-08-26T21:08:49.968Z,22.19
2022-08-26T21:11:18.137Z,22.07
2022-08-26T21:14:03.812Z,22.37
2022-08-26T21:16:31.904Z,22.03
2022-08-26T21:19:00.353Z,22.17
2022-08-26T21:21:27.632Z,22.43
2022-08-26T21:23:55.209Z,21.96
2022-08-26T21:26:22.586Z,21.65
2022-08-26T21:28:49.778Z,21.84
2022-08-26T21:31:18.923Z,21.78
2022-08-26T21:33:45.812Z,21.58
2022-08-26T21:36:14.312Z,21.49
2022-08-26T21:38:41.508Z,21.86
2022-08-26T21:41:14.146Z,21.83
2022-08-26T21:43:41.968Z,21.86
2022-08-26T21:46:14.487Z,21.53
2022-08-26T21:48:50.490Z,21.99
2022-08-26T21:51:20.575Z,21.94
2022-08-26T21:53:47.394Z,21.62
2022-08-26T21:56:17.755Z,21.85
2022-08-26T21:58:45.137Z,21.72
2022-08-26T22:01:15.725Z,21.84
2022-08-26T22:03:46.741Z,21.73
2022-08-26T22:06:14.411Z,22.00
2022-08-26T22:08:40.942Z,21.79
2022-08-26T22:11:09.336Z,21.80
2022-08-26T22:13:37.802Z,21.86
2022-08-26T22:16:06.062Z,21.56
2022-08-26T22:18:33.555Z,21.62
2022-08-26T22:21:04.665Z,21.60
2022-08-26T22:23:31.830Z,22.06
2022-08-26T22:25:59.700Z,21.90
2022-08-26T22:28:26.848Z,21.92
2022-08-26T22:30:53.663Z,21.97
2022-08-26T22:33:20.203Z,21.83
2022-08-26T22:35:49.497Z,21.80
2022-08-26T22:38:16.941Z,21.29
2022-08-26T22:40:46.070Z,21.97
2022-08-26T22:43:13.259Z,21.43
2022-08-26T22:45:43.105Z,21.44
2022-08-26T22:48:11.110Z,21.79
2022-08-26T22:50:38.039Z,21.99
2022-08-26T22:53:04.797Z,22.50
2022-08-26T22:55:31.377Z,22.26
2022-08-26T22:57:57.953Z,21.95
2022-08-26T23:00:28.972Z,22.10
2022-08-26T23:02:59.939Z,22.14
2022-08-26T23:05:27.095Z,21.56
2022-08-26T23:07:53.992Z,21.77
2022-08-26T23:10:20.702Z,21.77
2022-08-26T23:12:47.230Z,21.62
2022-08-26T23:15:14.484Z,22.03
2022-08-26T23:17:42.853Z,21.50
2022-08-26T23:20:11.606Z,21.63
2022-08-26T23:22:39.278Z,21.61
2022-08-26T23:25:08.336Z,20.71
2022-08-26T23:27:39.337Z,20.63
2022-08-26T23:30:08.086Z,20.69
2022-08-26T23:32:34.685Z,20.29
2022-08-26T23:35:01.952Z,21.17
2022-08-26T23:37:36.337Z,20.50
2022-08-26T23:40:09.393Z,21.38
2022-08-26T23:42:36.159Z,21.31
2022-08-26T23:45:05.646Z,21.34
2022-08-26T23:47:32.733Z,20.97
2022-08-26T23:49:59.723Z,20.89
2022-08-26T23:52:44.802Z,20.47
2022-08-26T23:55:11.688Z,20.57
2022-08-26T23:57:38.361Z,20.96
